Flight Track Log - Related Links

Times and Time Zones

All times are in EDT time to prevent confusion due to time zone crossing. See the SKW6345 flight status page for this flight to view local times or setup timezone preferences in your user account.


Time Position Orientation Groundspeed Altitude Reporting Facility
EDT Latitude Longitude Course Direction KTS MPH feet Rate Location/Type
Sat 02:05:53 PM 45.7081 -111.1983 236° Southwest 226 260 8,500  Level Salt Lake Center
Sat 02:06:55 PM 45.7092 -111.2933 271° West 233 268 10,700 2,274 Climbing Salt Lake Center
Sat 02:07:00 PM 45.7538 -111.7254 288° West  Level FlightAware Approximate
Sat 02:07:57 PM 45.7189 -111.3967 278° West 254 292 13,200  Level Salt Lake Center
Sat 02:08:00 PM 45.7864 -111.8720 288° West  Level FlightAware Approximate
Sat 02:08:59 PM 45.7308 -111.5006 279° West 261 300 15,700  Level Salt Lake Center
Sat 02:09:00 PM 45.8244 -112.0294 289° West  Level FlightAware Approximate
Sat 02:10:00 PM 45.8401 -112.1866 234° Southwest  Level FlightAware Approximate
Sat 02:10:01 PM 45.7439 -111.6186 279° West 293 337 16,900  Level Salt Lake Center
Sat 02:11:03 PM 45.7733 -111.7692 286° West 328 377 18,900 1,790 Climbing Salt Lake Center
Sat 02:12:05 PM 45.8017 -111.8989 287° West 337 388 20,600 1,548 Climbing Salt Lake Center
Sat 02:13:07 PM 45.8306 -112.0317 287° West 347 399 22,100 1,452 Climbing Salt Lake Center
Sat 02:14:09 PM 45.8492 -112.1697 281° West 358 412 23,600 1,016 Climbing Salt Lake Center
Sat 02:15:11 PM 45.7967 -112.2922 238° Southwest 364 419 24,200 581 Climbing Salt Lake Center
Sat 02:16:13 PM 45.7306 -112.4197 233° Southwest 391 450 24,800 581 Climbing Salt Lake Center
Sat 02:17:15 PM 45.6475 -112.5769 233° Southwest 411 473 25,400 629 Climbing Salt Lake Center
Sat 02:18:17 PM 45.5756 -112.7114 233° Southwest 425 489 26,100 629 Climbing Salt Lake Center
Sat 02:19:19 PM 45.5036 -112.8483 233° Southwest 430 495 26,700 774 Climbing Salt Lake Center
Sat 02:20:21 PM 45.4319 -112.9836 233° Southwest 429 494 27,700 919 Climbing Salt Lake Center
Sat 02:21:23 PM 45.3606 -113.1178 233° Southwest 427 491 28,600 871 Climbing Salt Lake Center
Sat 02:22:25 PM 45.2847 -113.2578 232° Southwest 423 487 29,500 968 Climbing Salt Lake Center
Sat 02:23:27 PM 45.2056 -113.4028 232° Southwest 417 480 30,600 871 Climbing Salt Lake Center
Sat 02:24:29 PM 45.1403 -113.5258 233° Southwest 409 471 31,300 629 Climbing Salt Lake Center
Sat 02:25:31 PM 45.0606 -113.6669 231° Southwest 412 474 31,900 339 Climbing Salt Lake Center
Sat 02:26:33 PM 44.9961 -113.7906 234° Southwest 411 473 32,000 48 Climbing Salt Lake Center
Sat 02:27:35 PM 44.9144 -113.9378 232° Southwest 424 488 32,000  Level Salt Lake Center
Sat 02:28:37 PM 44.8433 -114.0644 232° Southwest 434 499 32,000  Level Salt Lake Center
Sat 02:29:39 PM 44.7600 -114.2186 233° Southwest 442 509 32,000  Level Salt Lake Center
Sat 02:30:41 PM 44.6753 -114.3408 226° Southwest 449 517 32,000  Level Salt Lake Center
Sat 02:31:43 PM 44.5783 -114.4850 227° Southwest 453 521 32,000  Level Salt Lake Center
Sat 02:32:45 PM 44.4969 -114.6075 227° Southwest 449 517 32,000  Level Salt Lake Center
Sat 02:33:47 PM 44.4183 -114.7283 228° Southwest 444 511 32,000  Level Salt Lake Center
Sat 02:34:49 PM 44.3236 -114.8686 227° Southwest 442 509 32,000  Level Salt Lake Center
Sat 02:35:51 PM 44.2422 -114.9875 226° Southwest 442 509 32,000  Level Salt Lake Center
Sat 02:36:53 PM 44.1461 -115.1275 226° Southwest 443 510 32,000  Level Salt Lake Center
Sat 02:37:55 PM 44.0667 -115.2419 226° Southwest 430 495 32,000  Level Salt Lake Center
Sat 02:38:57 PM 43.9736 -115.3778 226° Southwest 431 496 32,000  Level Salt Lake Center
Sat 02:39:59 PM 43.8933 -115.4936 226° Southwest 432 497 32,000  Level Salt Lake Center
Sat 02:41:01 PM 43.8011 -115.6281 226° Southwest 430 495 32,000  Level Salt Lake Center
Sat 02:42:03 PM 43.7208 -115.7439 226° Southwest 433 498 32,000  Level Salt Lake Center
Sat 02:43:05 PM 43.6406 -115.8592 226° Southwest 433 498 32,000  Level Salt Lake Center
Sat 02:44:07 PM 43.5475 -115.9922 226° Southwest 431 496 32,000  Level Salt Lake Center
Sat 02:45:09 PM 43.4658 -116.1075 226° Southwest 436 502 32,000  Level Salt Lake Center
Sat 02:46:11 PM 43.3722 -116.2400 226° Southwest 432 497 32,000  Level Salt Lake Center
Sat 02:47:13 PM 43.2919 -116.3542 226° Southwest 433 498 32,000  Level Salt Lake Center
Sat 02:48:15 PM 43.1969 -116.4847 225° Southwest 431 496 32,000  Level Salt Lake Center
Sat 02:49:17 PM 43.1169 -116.5978 226° Southwest 431 496 32,000  Level Salt Lake Center
Sat 02:50:19 PM 43.0225 -116.7289 225° Southwest 431 496 32,000  Level Salt Lake Center
Sat 02:51:21 PM 42.9431 -116.8400 226° Southwest 429 494 32,000  Level Salt Lake Center
Sat 02:52:23 PM 42.8619 -116.9506 225° Southwest 430 495 32,000  Level Salt Lake Center
Sat 02:53:25 PM 42.7675 -117.0792 225° Southwest 430 495 32,000  Level Salt Lake Center
Sat 02:54:27 PM 42.6867 -117.1906 225° Southwest 431 496 32,000  Level Salt Lake Center
Sat 02:55:29 PM 42.5922 -117.3172 225° Southwest 427 491 32,000  Level Salt Lake Center
Sat 02:56:31 PM 42.5119 -117.4281 226° Southwest 429 494 32,000  Level Salt Lake Center
Sat 02:57:33 PM 42.4172 -117.5544 225° Southwest 427 491 32,000  Level Salt Lake Center
Sat 02:58:35 PM 42.3364 -117.6639 225° Southwest 429 494 32,000  Level Salt Lake Center
Sat 02:59:37 PM 42.2422 -117.7914 225° Southwest 429 494 32,000  Level Salt Lake Center
Sat 03:00:39 PM 42.1628 -117.8994 225° Southwest 426 490 32,000  Level Salt Lake Center
Sat 03:01:41 PM 42.0686 -118.0236 224° Southwest 426 490 32,000  Level Salt Lake Center
Sat 03:02:42 PM 41.9875 -118.1297 224° Southwest 425 489 32,000  Level Salt Lake Center
Sat 03:03:44 PM 41.9067 -118.2369 225° Southwest 426 490 32,000  Level Salt Lake Center
Sat 03:04:46 PM 41.8103 -118.3617 224° Southwest 428 493 32,000  Level Salt Lake Center
Sat 03:05:48 PM 41.7306 -118.4667 225° Southwest 425 489 32,000  Level Salt Lake Center
Sat 03:06:51 PM 41.6350 -118.5906 224° Southwest 428 493 32,000  Level Salt Lake Center
Sat 03:07:52 PM 41.5533 -118.6967 224° Southwest 428 493 32,000  Level Salt Lake Center
Sat 03:08:54 PM 41.4564 -118.8208 224° Southwest 429 494 32,000  Level Salt Lake Center
Sat 03:09:56 PM 41.3758 -118.9261 224° Southwest 428 493 32,000  Level Salt Lake Center
Sat 03:10:58 PM 41.2797 -119.0478 224° Southwest 428 493 32,000  Level Salt Lake Center
Sat 03:12:00 PM 41.1972 -119.1522 224° Southwest 428 493 32,000  Level Salt Lake Center
Sat 03:13:02 PM 41.1006 -119.2747 224° Southwest 430 495 32,000  Level Salt Lake Center
Sat 03:14:04 PM 41.0183 -119.3786 224° Southwest 429 494 32,000  Level Salt Lake Center
Sat 03:15:05 PM 40.9231 -119.4981 223° Southwest 431 496 32,000  Level Salt Lake Center
Sat 03:16:07 PM 40.8375 -119.6058 224° Southwest 426 490 32,000  Level Salt Lake Center
Sat 03:17:19 PM 40.7358 -119.7339 224° Southwest 428 493 32,000  Level Oakland Center
Sat 03:18:20 PM 40.6511 -119.8400 224° Southwest 425 489 32,000  Level Oakland Center
Sat 03:19:21 PM 40.5647 -119.9472 223° Southwest 425 489 32,000  Level Oakland Center
Sat 03:20:23 PM 40.4747 -120.0575 223° Southwest 433 498 32,000  Level Oakland Center
Sat 03:21:24 PM 40.3908 -120.1611 223° Southwest 424 488 32,000  Level Oakland Center
Sat 03:22:25 PM 40.3044 -120.2672 223° Southwest 424 488 32,000  Level Oakland Center
Sat 03:23:27 PM 40.2003 -120.3942 223° Southwest 426 490 32,000  Level Oakland Center
Sat 03:24:28 PM 40.1142 -120.4964 222° Southwest 423 487 32,000  Level Oakland Center
Sat 03:25:30 PM 40.0275 -120.6008 223° Southwest 422 486 32,000  Level Oakland Center
Sat 03:26:31 PM 39.9525 -120.6947 224° Southwest 426 490 32,000  Level Oakland Center
Sat 03:27:32 PM 39.8481 -120.8181 222° Southwest 423 487 32,000  Level Oakland Center
Sat 03:28:34 PM 39.7617 -120.9208 222° Southwest 423 487 32,000  Level Oakland Center
Sat 03:29:35 PM 39.6753 -121.0231 222° Southwest 422 486 32,000  Level Oakland Center
Sat 03:30:37 PM 39.5903 -121.1253 223° Southwest 418 481 32,000  Level Oakland Center
Sat 03:31:38 PM 39.5089 -121.2222 223° Southwest 422 486 32,000  Level Oakland Center
Sat 03:32:40 PM 39.4167 -121.3297 222° Southwest 422 486 32,000  Level Oakland Center
Sat 03:33:41 PM 39.3306 -121.4317 222° Southwest 421 484 32,000  Level Oakland Center
Sat 03:34:42 PM 39.2453 -121.5322 222° Southwest 419 482 32,000  Level Oakland Center
Sat 03:35:44 PM 39.1417 -121.6531 222° Southwest 421 484 32,000  Level Oakland Center
Sat 03:36:45 PM 39.0536 -121.7558 222° Southwest 428 493 32,000  Level Oakland Center
Sat 03:37:47 PM 38.9669 -121.8572 222° Southwest 424 488 32,000 -390 Level Oakland Center
Sat 03:38:48 PM 38.8797 -121.9589 222° Southwest 427 491 31,200 -878 Descending Oakland Center
Sat 03:39:50 PM 38.7894 -122.0608 221° Southwest 435 501 30,200 -976 Descending Oakland Center
Sat 03:40:51 PM 38.7006 -122.1642 222° Southwest 434 499 29,200 -1,033 Descending Oakland Center
Sat 03:41:52 PM 38.6006 -122.2761 221° Southwest 436 502 28,100 -1,024 Descending Oakland Center
Sat 03:42:54 PM 38.5097 -122.3800 222° Southwest 437 503 27,100 -1,268 Descending Oakland Center
Sat 03:43:55 PM 38.4200 -122.4853 223° Southwest 439 505 25,500 -2,098 Descending Oakland Center
Sat 03:44:57 PM 38.3278 -122.5894 222° Southwest 443 510 22,800 -2,634 Descending Oakland Center
Sat 03:45:58 PM 38.2356 -122.6936 222° Southwest 446 513 20,100 -3,000 Descending Oakland Center
Sat 03:46:59 PM 38.1300 -122.8092 221° Southwest 423 487 16,700 -2,829 Descending Oakland Center
Sat 03:48:01 PM 38.0203 -122.8017 177° South 411 473 14,300 -2,390 Descending Oakland Center
Sat 03:49:02 PM 37.9331 -122.7083 140° Southeast 415 478 11,800 -1,672 Descending Oakland Center
Sat 03:50:03 PM 37.8511 -122.6222 140° Southeast 403 464 10,900 -390 Descending Oakland Center
Sat 03:51:05 PM 37.7508 -122.5153 140° Southeast 402 463 11,000 49 Climbing Oakland Center
Sat 03:52:06 PM 37.6669 -122.4261 140° Southeast 398 458 11,000 -49 Level Oakland Center
Sat 03:53:07 PM 37.5833 -122.3333 139° Southeast 381 438 10,900 -1,240 Descending Northern Cal TRACON
Sat 03:54:07 PM 37.5000 -122.3000 162° South 302 348 8,500 -2,400 Descending Northern Cal TRACON
Sat 03:55:07 PM 37.4500 -122.2167 127° Southeast 277 319 6,100 -2,250 Descending Northern Cal TRACON
Sat 03:56:07 PM 37.5000 -122.1500 47° Northeast 266 306 4,000 -1,500 Descending Northern Cal TRACON
Sat 03:57:07 PM 37.5333 -122.1833 322° Northwest 207 238 3,100 -992 Descending Northern Cal TRACON
Sat 03:58:08 PM 37.5667 -122.2500 302° West 203 234 2,000 -1,082 Descending Northern Cal TRACON

Login

Don't have an account? Register now (free) for customized features, flight alerts, and more!